^^
Grace C. Lehan Memorial Weather Station Historical Data
Daily Summary for August 16, 2022 Units:  Both    English   Metric
Daily Weekly Monthly Yearly
  High: Low: Average:
Temperature: 85.2 °F /  29.6 °C 58.5 °F /  14.7 °C 72.7 °F /  22.6 °C
Dew Point: 60.7 °F /  15.9 °C 53.7 °F /  12.1 °C 57.1 °F /  13.9 °C
Humidity: 90% 35.7% 61%
Wind Speed: 6mph /  9.7km/h - 1.3mph /  2.1km/h
Wind Gust: 18mph /  29km/h - -
Wind- - East
Pressure: 30.02 in /  1016.5 hPa 29.94 in /  1013.8 hPa -
Precipitation: 0.00 in /  0 mm    
 
 
Tabular Data for August 16, 2022
Time Temperature Dew Point Pressure Wind Wind Speed Wind Gust Humidity Rainfall Rate (Hourly) solar
00:00 65.9 °F /  18.8 °C 57 °F /  13.9 °C 30.00in /  1015.8hPa Calm     73% 0.00in /  0mm 0 W/m2
00:09 65.6 °F /  18.7 °C 57.2 °F /  14 °C 30.00in /  1015.8hPa Calm     74.2% 0.00in /  0mm 0 W/m2
00:14 65.4 °F /  18.6 °C 57.3 °F /  14.1 °C 30.00in /  1015.8hPa Calm     75% 0.00in /  0mm 0 W/m2
00:19 65.2 °F /  18.4 °C 57.1 °F /  13.9 °C 30.00in /  1015.8hPa Calm     75% 0.00in /  0mm 0 W/m2
00:24 65 °F /  18.3 °C 57 °F /  13.9 °C 30.00in /  1015.8hPa Calm     75.3% 0.00in /  0mm 0 W/m2
00:29 64.8 °F /  18.2 °C 57.1 °F /  13.9 °C 30.00in /  1015.8hPa Calm     76% 0.00in /  0mm 0 W/m2
00:34 64.7 °F /  18.2 °C 57 °F /  13.9 °C 30.00in /  1015.8hPa Calm     76% 0.00in /  0mm 0 W/m2
00:39 64.5 °F /  18.1 °C 57 °F /  13.9 °C 30.00in /  1015.8hPa Calm     76.4% 0.00in /  0mm 0 W/m2
00:44 64.4 °F /  18 °C 57.2 °F /  14 °C 30.00in /  1015.8hPa Calm     77.4% 0.00in /  0mm 0 W/m2
00:49 64.4 °F /  18 °C 57.7 °F /  14.3 °C 29.99in /  1015.5hPa Calm     78.8% 0.00in /  0mm 0 W/m2
00:54 64.3 °F /  17.9 °C 57.7 °F /  14.3 °C 29.99in /  1015.5hPa Calm     79% 0.00in /  0mm 0 W/m2
00:59 64.2 °F /  17.9 °C 57.6 °F /  14.2 °C 29.99in /  1015.5hPa Calm     79% 0.00in /  0mm 0 W/m2
01:04 64.1 °F /  17.8 °C 57.5 °F /  14.2 °C 29.99in /  1015.5hPa Calm     79% 0.00in /  0mm 0 W/m2
01:09 64 °F /  17.8 °C 57.3 °F /  14.1 °C 29.99in /  1015.5hPa Calm     79% 0.00in /  0mm 0 W/m2
01:14 63.8 °F /  17.7 °C 57.2 °F /  14 °C 29.99in /  1015.5hPa Calm     79.2% 0.00in /  0mm 0 W/m2
01:19 63.6 °F /  17.6 °C 57.4 °F /  14.1 °C 29.99in /  1015.5hPa Calm     80% 0.00in /  0mm 0 W/m2
01:24 63.5 °F /  17.5 °C 57.2 °F /  14 °C 29.99in /  1015.5hPa Calm     80% 0.00in /  0mm 0 W/m2
01:29 63.4 °F /  17.4 °C 57.1 °F /  13.9 °C 29.99in /  1015.5hPa Calm     80% 0.00in /  0mm 0 W/m2
01:34 63.2 °F /  17.3 °C 56.9 °F /  13.8 °C 29.99in /  1015.5hPa Calm     80.1% 0.00in /  0mm 0 W/m2
01:39 63 °F /  17.2 °C 57.1 °F /  13.9 °C 29.99in /  1015.5hPa Calm     81% 0.00in /  0mm 0 W/m2
01:44 62.9 °F /  17.2 °C 57 °F /  13.9 °C 29.99in /  1015.5hPa Calm     81% 0.00in /  0mm 0 W/m2
01:49 62.7 °F /  17.1 °C 56.8 °F /  13.8 °C 29.99in /  1015.5hPa Calm     81% 0.00in /  0mm 0 W/m2
01:54 62.5 °F /  16.9 °C 57 °F /  13.9 °C 29.99in /  1015.5hPa Calm     82% 0.00in /  0mm 0 W/m2
01:59 62.4 °F /  16.9 °C 56.8 °F /  13.8 °C 29.99in /  1015.5hPa Calm     82% 0.00in /  0mm 0 W/m2
02:04 62.3 °F /  16.8 °C 56.7 °F /  13.7 °C 29.99in /  1015.5hPa Calm     82% 0.00in /  0mm 0 W/m2
02:09 62.2 °F /  16.8 °C 56.6 °F /  13.7 °C 29.99in /  1015.5hPa Calm     82.1% 0.00in /  0mm 0 W/m2
02:14 62 °F /  16.7 °C 56.8 °F /  13.8 °C 29.99in /  1015.5hPa Calm     83% 0.00in /  0mm 0 W/m2
02:19 61.9 °F /  16.6 °C 56.7 °F /  13.7 °C 29.99in /  1015.5hPa Calm     83% 0.00in /  0mm 0 W/m2
02:24 61.8 °F /  16.6 °C 56.5 °F /  13.6 °C 29.99in /  1015.5hPa Calm     83% 0.00in /  0mm 0 W/m2
02:29 61.6 °F /  16.4 °C 56.5 °F /  13.6 °C 29.99in /  1015.5hPa Calm     83.2% 0.00in /  0mm 0 W/m2
02:34 61.5 °F /  16.4 °C 56.6 °F /  13.7 °C 29.99in /  1015.5hPa Calm     84% 0.00in /  0mm 0 W/m2
02:39 61.4 °F /  16.3 °C 56.5 °F /  13.6 °C 29.99in /  1015.5hPa Calm     84% 0.00in /  0mm 0 W/m2
02:44 61.3 °F /  16.3 °C 56.4 °F /  13.6 °C 29.99in /  1015.5hPa Calm     84% 0.00in /  0mm 0 W/m2
02:49 61.2 °F /  16.2 °C 56.4 °F /  13.6 °C 29.99in /  1015.5hPa Calm     84% 0.00in /  0mm 0 W/m2
02:54 61.1 °F /  16.2 °C 56.2 °F /  13.4 °C 29.99in /  1015.5hPa Calm     84% 0.00in /  0mm 0 W/m2
02:59 61 °F /  16.1 °C 56.1 °F /  13.4 °C 29.99in /  1015.5hPa Calm     84% 0.00in /  0mm 0 W/m2
03:04 60.9 °F /  16.1 °C 56 °F /  13.3 °C 29.99in /  1015.5hPa Calm     84% 0.00in /  0mm 0 W/m2
03:09 60.7 °F /  15.9 °C 56.1 °F /  13.4 °C 29.99in /  1015.5hPa Calm     84.8% 0.00in /  0mm 0 W/m2
03:14 60.6 °F /  15.9 °C 55.8 °F /  13.2 °C 29.99in /  1015.5hPa Calm     84.2% 0.00in /  0mm 0 W/m2
03:19 60.5 °F /  15.8 °C 55.8 °F /  13.2 °C 29.99in /  1015.5hPa Calm     84.6% 0.00in /  0mm 0 W/m2
03:24 60.4 °F /  15.8 °C 55.9 °F /  13.3 °C 29.99in /  1015.5hPa Calm     85% 0.00in /  0mm 0 W/m2
03:29 60.3 °F /  15.7 °C 55.8 °F /  13.2 °C 29.99in /  1015.5hPa Calm     85% 0.00in /  0mm 0 W/m2
03:34 60.3 °F /  15.7 °C 55.7 °F /  13.2 °C 29.99in /  1015.5hPa Calm     85% 0.00in /  0mm 0 W/m2
03:39 60.2 °F /  15.7 °C 55.7 °F /  13.2 °C 29.99in /  1015.5hPa Calm     85% 0.00in /  0mm 0 W/m2
03:44 60.1 °F /  15.6 °C 55.6 °F /  13.1 °C 29.99in /  1015.5hPa Calm     85% 0.00in /  0mm 0 W/m2
03:49 60 °F /  15.6 °C 55.5 °F /  13.1 °C 29.99in /  1015.5hPa Calm     85% 0.00in /  0mm 0 W/m2
03:54 59.9 °F /  15.5 °C 55.4 °F /  13 °C 29.99in /  1015.5hPa Calm     85% 0.00in /  0mm 0 W/m2
03:59 59.8 °F /  15.4 °C 55.3 °F /  12.9 °C 29.99in /  1015.5hPa Calm     85.1% 0.00in /  0mm 0 W/m2
04:00 59.8 °F /  15.4 °C 55.6 °F /  13.1 °C 29.99in /  1015.5hPa Calm     86% 0.00in /  0mm 0 W/m2
04:09 59.6 °F /  15.3 °C 55.4 °F /  13 °C 29.99in /  1015.5hPa Calm     86% 0.00in /  0mm 0 W/m2
04:14 59.5 °F /  15.3 °C 55.3 °F /  12.9 °C 29.99in /  1015.5hPa Calm     86% 0.00in /  0mm 0 W/m2
04:19 59.4 °F /  15.2 °C 55.2 °F /  12.9 °C 29.99in /  1015.5hPa Calm     86% 0.00in /  0mm 0 W/m2
04:24 59.3 °F /  15.2 °C 55.3 °F /  12.9 °C 29.99in /  1015.5hPa Calm     86.6% 0.00in /  0mm 0 W/m2
04:29 59.2 °F /  15.1 °C 55.3 °F /  12.9 °C 29.99in /  1015.5hPa Calm     87% 0.00in /  0mm 0 W/m2
04:34 59.1 °F /  15.1 °C 55.2 °F /  12.9 °C 29.99in /  1015.5hPa Calm     87% 0.00in /  0mm 0 W/m2
04:39 59.1 °F /  15.1 °C 55.2 °F /  12.9 °C 29.99in /  1015.5hPa Calm     87% 0.00in /  0mm 0 W/m2
04:44 59 °F /  15 °C 55.2 °F /  12.9 °C 29.99in /  1015.5hPa Calm     87% 0.00in /  0mm 0 W/m2
04:49 59 °F /  15 °C 55.1 °F /  12.8 °C 29.99in /  1015.5hPa Calm     87% 0.00in /  0mm 0 W/m2
04:54 58.9 °F /  14.9 °C 55 °F /  12.8 °C 29.99in /  1015.5hPa Calm     87% 0.00in /  0mm 0 W/m2
04:59 58.9 °F /  14.9 °C 55 °F /  12.8 °C 29.99in /  1015.5hPa Calm     87% 0.00in /  0mm 0 W/m2
05:04 58.8 °F /  14.9 °C 54.9 °F /  12.7 °C 29.99in /  1015.5hPa Calm     87% 0.00in /  0mm 0 W/m2
05:09 58.7 °F /  14.8 °C 54.9 °F /  12.7 °C 29.99in /  1015.5hPa Calm     87% 0.00in /  0mm 0 W/m2
05:14 58.7 °F /  14.8 °C 54.8 °F /  12.7 °C 29.99in /  1015.5hPa Calm     87% 0.00in /  0mm 0 W/m2
05:19 58.6 °F /  14.8 °C 54.9 °F /  12.7 °C 29.99in /  1015.5hPa Calm     87.6% 0.00in /  0mm 0 W/m2
05:24 58.6 °F /  14.8 °C 55.1 °F /  12.8 °C 29.99in /  1015.5hPa Calm     88% 0.00in /  0mm 0 W/m2
05:29 58.6 °F /  14.8 °C 55.1 °F /  12.8 °C 29.99in /  1015.5hPa Calm     88% 0.00in /  0mm 0 W/m2
05:34 58.6 °F /  14.8 °C 55 °F /  12.8 °C 29.99in /  1015.5hPa Calm     88% 0.00in /  0mm 0 W/m2
05:39 58.5 °F /  14.7 °C 55 °F /  12.8 °C 29.99in /  1015.5hPa Calm     88% 0.00in /  0mm 0 W/m2
05:44 58.5 °F /  14.7 °C 55 °F /  12.8 °C 29.99in /  1015.5hPa Calm     88% 0.00in /  0mm 0 W/m2
05:49 58.5 °F /  14.7 °C 55 °F /  12.8 °C 29.99in /  1015.5hPa Calm     88% 0.00in /  0mm 0 W/m2
05:54 58.5 °F /  14.7 °C 55.2 °F /  12.9 °C 29.99in /  1015.5hPa Calm   1mph /  1.6km/h 89% 0.00in /  0mm 0 W/m2
05:59 58.5 °F /  14.7 °C 55.3 °F /  12.9 °C 29.99in /  1015.5hPa Calm   1mph /  1.6km/h 89% 0.00in /  0mm 0 W/m2
06:04 58.5 °F /  14.7 °C 55.3 °F /  12.9 °C 29.99in /  1015.5hPa Calm   1mph /  1.6km/h 89% 0.00in /  0mm 7 W/m2
06:09 58.6 °F /  14.8 °C 55.4 °F /  13 °C 29.99in /  1015.5hPa Calm     89% 0.00in /  0mm 11 W/m2
06:14 58.6 °F /  14.8 °C 55.4 °F /  13 °C 29.99in /  1015.5hPa Calm     89% 0.00in /  0mm 16 W/m2
06:19 58.7 °F /  14.8 °C 55.7 °F /  13.2 °C 29.99in /  1015.5hPa Calm     89.6% 0.00in /  0mm 23 W/m2
06:24 58.9 °F /  14.9 °C 56 °F /  13.3 °C 29.99in /  1015.5hPa Calm     90% 0.00in /  0mm 30 W/m2
06:29 59.1 °F /  15.1 °C 56.1 °F /  13.4 °C 29.99in /  1015.5hPa Calm     90% 0.00in /  0mm 39 W/m2
06:34 59.3 °F /  15.2 °C 56.3 °F /  13.5 °C 29.99in /  1015.5hPa Calm     90% 0.00in /  0mm 42 W/m2
06:39 59.5 °F /  15.3 °C 56.6 °F /  13.7 °C 29.99in /  1015.5hPa Calm     90% 0.00in /  0mm 49 W/m2
06:44 59.8 °F /  15.4 °C 56.7 °F /  13.7 °C 29.99in /  1015.5hPa Calm     89.7% 0.00in /  0mm 102 W/m2
06:49 60.1 °F /  15.6 °C 56.8 °F /  13.8 °C 29.99in /  1015.5hPa Calm     89% 0.00in /  0mm 120 W/m2
06:54 60.5 °F /  15.8 °C 57.2 °F /  14 °C 29.99in /  1015.5hPa Calm   1mph /  1.6km/h 89% 0.00in /  0mm 151 W/m2
06:59 61.1 °F /  16.2 °C 57.5 °F /  14.2 °C 29.99in /  1015.5hPa Calm   1mph /  1.6km/h 87.8% 0.00in /  0mm 176 W/m2
07:04 61.8 °F /  16.6 °C 57.6 °F /  14.2 °C 29.99in /  1015.5hPa East 0.2mph /  0.3km/h 4mph /  6.4km/h 86.2% 0.00in /  0mm 176 W/m2
07:09 62.7 °F /  17.1 °C 57.6 °F /  14.2 °C 30.00in /  1015.8hPa East 0.5mph /  0.8km/h 4mph /  6.4km/h 83.5% 0.00in /  0mm 209 W/m2
07:14 63.4 °F /  17.4 °C 57.6 °F /  14.2 °C 30.00in /  1015.8hPa East 0.5mph /  0.8km/h 5mph /  8km/h 81.5% 0.00in /  0mm 223 W/m2
07:19 64 °F /  17.8 °C 57.7 °F /  14.3 °C 30.00in /  1015.8hPa ENE 0.6mph /  1km/h 5mph /  8km/h 80% 0.00in /  0mm 204 W/m2
07:24 64.7 °F /  18.2 °C 58.1 °F /  14.5 °C 30.00in /  1015.8hPa ENE 0.5mph /  0.8km/h 5mph /  8km/h 79.2% 0.00in /  0mm 207 W/m2
07:29 65.5 °F /  18.6 °C 58.4 °F /  14.7 °C 30.00in /  1015.8hPa Calm   5mph /  8km/h 78% 0.00in /  0mm 239 W/m2
07:34 66.2 °F /  19 °C 58.6 °F /  14.8 °C 30.00in /  1015.8hPa ENE 0.1mph /  0.2km/h 5mph /  8km/h 76.5% 0.00in /  0mm 246 W/m2
07:39 66.8 °F /  19.3 °C 58.7 °F /  14.8 °C 30.00in /  1015.8hPa ENE 0.1mph /  0.2km/h 2mph /  3.2km/h 75.3% 0.00in /  0mm 294 W/m2
07:44 67.3 °F /  19.6 °C 58.5 °F /  14.7 °C 30.00in /  1015.8hPa ENE 0.7mph /  1.1km/h 7mph /  11.3km/h 73.5% 0.00in /  0mm 313 W/m2
07:49 67.7 °F /  19.8 °C 58.4 °F /  14.7 °C 30.01in /  1016.1hPa Calm   7mph /  11.3km/h 72.1% 0.00in /  0mm 338 W/m2
07:54 68.1 °F /  20.1 °C 58.4 °F /  14.7 °C 30.00in /  1015.8hPa NNW 0.6mph /  1km/h 7mph /  11.3km/h 71.3% 0.00in /  0mm 343 W/m2
07:59 68.5 °F /  20.3 °C 58.8 °F /  14.9 °C 30.01in /  1016.1hPa NNW 0.1mph /  0.2km/h 7mph /  11.3km/h 71.2% 0.00in /  0mm 350 W/m2
08:00 68.8 °F /  20.4 °C 59.4 °F /  15.2 °C 30.01in /  1016.1hPa Calm   7mph /  11.3km/h 72% 0.00in /  0mm 323 W/m2
08:09 69.4 °F /  20.8 °C 59.1 °F /  15.1 °C 30.00in /  1015.8hPa NW 0.5mph /  0.8km/h 6mph /  9.7km/h 69.8% 0.00in /  0mm 348 W/m2
08:14 69.7 °F /  20.9 °C 59.2 °F /  15.1 °C 30.01in /  1016.1hPa North 1mph /  1.6km/h 6mph /  9.7km/h 69.2% 0.00in /  0mm 359 W/m2
08:19 70 °F /  21.1 °C 59.1 °F /  15.1 °C 30.01in /  1016.1hPa Calm   6mph /  9.7km/h 68.3% 0.00in /  0mm 403 W/m2
08:24 70.3 °F /  21.3 °C 59.2 °F /  15.1 °C 30.01in /  1016.1hPa NW 0.3mph /  0.5km/h 6mph /  9.7km/h 67.9% 0.00in /  0mm 434 W/m2
08:29 70.6 °F /  21.4 °C 59.1 °F /  15.1 °C 30.01in /  1016.1hPa NE 0.7mph /  1.1km/h 6mph /  9.7km/h 67.1% 0.00in /  0mm 448 W/m2
08:34 71 °F /  21.7 °C 59.1 °F /  15.1 °C 30.01in /  1016.1hPa ENE 0.9mph /  1.4km/h 7mph /  11.3km/h 66% 0.00in /  0mm 455 W/m2
08:39 71.2 °F /  21.8 °C 59 °F /  15 °C 30.02in /  1016.5hPa ENE 0.4mph /  0.6km/h 7mph /  11.3km/h 65.4% 0.00in /  0mm 473 W/m2
08:44 71.7 °F /  22.1 °C 59.8 °F /  15.4 °C 30.01in /  1016.1hPa ENE 0.6mph /  1km/h 7mph /  11.3km/h 66.1% 0.00in /  0mm 499 W/m2
08:49 72.1 °F /  22.3 °C 59.1 °F /  15.1 °C 30.01in /  1016.1hPa NNW 0.3mph /  0.5km/h 7mph /  11.3km/h 63.6% 0.00in /  0mm 529 W/m2
08:54 72.7 °F /  22.6 °C 59.9 °F /  15.5 °C 30.02in /  1016.5hPa NNE 0.7mph /  1.1km/h 7mph /  11.3km/h 64% 0.00in /  0mm 547 W/m2
08:59 73.4 °F /  23 °C 59.7 °F /  15.4 °C 30.01in /  1016.1hPa North 0.1mph /  0.2km/h 7mph /  11.3km/h 62.1% 0.00in /  0mm 541 W/m2
09:04 74 °F /  23.3 °C 60.2 °F /  15.7 °C 30.01in /  1016.1hPa North 0.3mph /  0.5km/h 7mph /  11.3km/h 62.1% 0.00in /  0mm 564 W/m2
09:09 74.7 °F /  23.7 °C 59.9 °F /  15.5 °C 30.01in /  1016.1hPa NE 0.5mph /  0.8km/h 5mph /  8km/h 60% 0.00in /  0mm 577 W/m2
09:14 75.1 °F /  23.9 °C 59.8 °F /  15.4 °C 30.01in /  1016.1hPa ENE 0.8mph /  1.3km/h 5mph /  8km/h 59% 0.00in /  0mm 585 W/m2
09:19 75.6 °F /  24.2 °C 60.4 °F /  15.8 °C 30.01in /  1016.1hPa NE 0.3mph /  0.5km/h 5mph /  8km/h 59.2% 0.00in /  0mm 599 W/m2
09:24 76 °F /  24.4 °C 60.2 °F /  15.7 °C 30.01in /  1016.1hPa NNW 0.6mph /  1km/h 9mph /  14.5km/h 57.9% 0.00in /  0mm 617 W/m2
09:29 76.5 °F /  24.7 °C 60.3 °F /  15.7 °C 30.01in /  1016.1hPa NNW 0.7mph /  1.1km/h 9mph /  14.5km/h 57.3% 0.00in /  0mm 635 W/m2
09:34 77 °F /  25 °C 60.6 °F /  15.9 °C 30.01in /  1016.1hPa NNW 1.3mph /  2.1km/h 9mph /  14.5km/h 56.9% 0.00in /  0mm 643 W/m2
09:39 77.5 °F /  25.3 °C 59.9 °F /  15.5 °C 30.01in /  1016.1hPa North 1.8mph /  2.9km/h 11mph /  17.7km/h 54.5% 0.00in /  0mm 684 W/m2
09:44 77.6 °F /  25.3 °C 59.6 °F /  15.3 °C 30.01in /  1016.1hPa NNE 0.5mph /  0.8km/h 11mph /  17.7km/h 54% 0.00in /  0mm 717 W/m2
09:49 77.6 °F /  25.3 °C 59.9 °F /  15.5 °C 30.01in /  1016.1hPa NE 1.2mph /  1.9km/h 11mph /  17.7km/h 54.5% 0.00in /  0mm 740 W/m2
09:54 77.8 °F /  25.4 °C 59.5 °F /  15.3 °C 30.01in /  1016.1hPa NE 1.6mph /  2.6km/h 11mph /  17.7km/h 53.4% 0.00in /  0mm 780 W/m2
09:59 78 °F /  25.6 °C 60.2 °F /  15.7 °C 30.01in /  1016.1hPa NE 1.1mph /  1.8km/h 11mph /  17.7km/h 54.3% 0.00in /  0mm 816 W/m2
10:00 78.4 °F /  25.8 °C 59.3 °F /  15.2 °C 30.01in /  1016.1hPa NE 1mph /  1.6km/h 11mph /  17.7km/h 52% 0.00in /  0mm 674 W/m2
10:30 78.9 °F /  26.1 °C 58.7 °F /  14.8 °C 30.00in /  1015.8hPa NNW 1mph /  1.6km/h 14mph /  22.5km/h 50% 0.00in /  0mm 544 W/m2
11:30 82.6 °F /  28.1 °C 59.8 °F /  15.4 °C 30.00in /  1015.8hPa ENE 1mph /  1.6km/h 9mph /  14.5km/h 46% 0.00in /  0mm 824 W/m2
12:04 83.8 °F /  28.8 °C 60.5 °F /  15.8 °C 30.00in /  1015.8hPa NW 1.5mph /  2.4km/h 5mph /  8km/h 45.6% 0.00in /  0mm 898 W/m2
12:09 83.4 °F /  28.6 °C 60.2 °F /  15.7 °C 30.00in /  1015.8hPa NNE 1.5mph /  2.4km/h 6mph /  9.7km/h 45.4% 0.00in /  0mm 898 W/m2
12:14 83.3 °F /  28.5 °C 60.5 °F /  15.8 °C 30.00in /  1015.8hPa NW 2.9mph /  4.7km/h 11mph /  17.7km/h 46.2% 0.00in /  0mm 902 W/m2
12:19 83.2 °F /  28.4 °C 60.2 °F /  15.7 °C 29.99in /  1015.5hPa NW 3.4mph /  5.5km/h 16mph /  25.7km/h 45.8% 0.00in /  0mm 984 W/m2
12:24 83.3 °F /  28.5 °C 60.7 °F /  15.9 °C 29.99in /  1015.5hPa North 1.4mph /  2.3km/h 16mph /  25.7km/h 46.5% 0.00in /  0mm 972 W/m2
12:29 83.7 °F /  28.7 °C 59.2 °F /  15.1 °C 29.99in /  1015.5hPa NE 3.6mph /  5.8km/h 16mph /  25.7km/h 43.7% 0.00in /  0mm 932 W/m2
12:34 83.7 °F /  28.7 °C 59.5 °F /  15.3 °C 30.00in /  1015.8hPa NNE 1.3mph /  2.1km/h 16mph /  25.7km/h 44.1% 0.00in /  0mm 960 W/m2
12:39 83.5 °F /  28.6 °C 58.7 °F /  14.8 °C 30.00in /  1015.8hPa ENE 2.9mph /  4.7km/h 13mph /  20.9km/h 43.1% 0.00in /  0mm 981 W/m2
12:44 83.7 °F /  28.7 °C 57 °F /  13.9 °C 29.99in /  1015.5hPa ENE 3.4mph /  5.5km/h 13mph /  20.9km/h 40.3% 0.00in /  0mm 970 W/m2
12:49 84 °F /  28.9 °C 57.2 °F /  14 °C 29.99in /  1015.5hPa ENE 3.4mph /  5.5km/h 13mph /  20.9km/h 40.2% 0.00in /  0mm 974 W/m2
12:54 84.3 °F /  29.1 °C 57.4 °F /  14.1 °C 29.99in /  1015.5hPa ENE 1.3mph /  2.1km/h 13mph /  20.9km/h 40% 0.00in /  0mm 939 W/m2
12:59 84.7 °F /  29.3 °C 57.1 °F /  13.9 °C 29.99in /  1015.5hPa NE 3.2mph /  5.1km/h 13mph /  20.9km/h 39.1% 0.00in /  0mm 962 W/m2
13:04 84.9 °F /  29.4 °C 57.2 °F /  14 °C 29.99in /  1015.5hPa NE 3.7mph /  6km/h 13mph /  20.9km/h 39% 0.00in /  0mm 986 W/m2
13:09 84.9 °F /  29.4 °C 56.5 °F /  13.6 °C 29.99in /  1015.5hPa NE 2.3mph /  3.7km/h 13mph /  20.9km/h 38% 0.00in /  0mm 986 W/m2
13:14 84.6 °F /  29.2 °C 56 °F /  13.3 °C 29.98in /  1015.1hPa ENE 3.2mph /  5.1km/h 13mph /  20.9km/h 37.7% 0.00in /  0mm 937 W/m2
13:19 84.2 °F /  29 °C 56 °F /  13.3 °C 29.98in /  1015.1hPa NNE 3.3mph /  5.3km/h 13mph /  20.9km/h 38.2% 0.00in /  0mm 942 W/m2
13:24 84.2 °F /  29 °C 55.5 °F /  13.1 °C 29.98in /  1015.1hPa ENE 5.1mph /  8.2km/h 14mph /  22.5km/h 37.5% 0.00in /  0mm 960 W/m2
13:29 84.3 °F /  29.1 °C 55.3 °F /  12.9 °C 29.98in /  1015.1hPa East 2.8mph /  4.5km/h 14mph /  22.5km/h 37.1% 0.00in /  0mm 919 W/m2
13:34 84.4 °F /  29.1 °C 55.7 °F /  13.2 °C 29.98in /  1015.1hPa East 1.6mph /  2.6km/h 14mph /  22.5km/h 37.6% 0.00in /  0mm 921 W/m2
13:39 84.5 °F /  29.2 °C 55.1 °F /  12.8 °C 29.98in /  1015.1hPa ENE 6mph /  9.7km/h 13mph /  20.9km/h 36.6% 0.00in /  0mm 918 W/m2
13:44 84.5 °F /  29.2 °C 54.9 °F /  12.7 °C 29.98in /  1015.1hPa ENE 3.6mph /  5.8km/h 14mph /  22.5km/h 36.4% 0.00in /  0mm 930 W/m2
13:49 84.5 °F /  29.2 °C 55.9 °F /  13.3 °C 29.97in /  1014.8hPa ENE 1.9mph /  3.1km/h 14mph /  22.5km/h 37.6% 0.00in /  0mm 905 W/m2
13:53 84.8 °F /  29.3 °C 56 °F /  13.3 °C 29.97in /  1014.8hPa NE 2.8mph /  4.5km/h 14mph /  22.5km/h 37.4% 0.00in /  0mm 921 W/m2
13:59 85 °F /  29.4 °C 56 °F /  13.3 °C 29.97in /  1014.8hPa ENE 1.8mph /  2.9km/h 14mph /  22.5km/h 37.2% 0.00in /  0mm 907 W/m2
14:04 84.9 °F /  29.4 °C 55.7 °F /  13.2 °C 29.97in /  1014.8hPa NE 3.5mph /  5.6km/h 14mph /  22.5km/h 36.9% 0.00in /  0mm 860 W/m2
14:09 84.4 °F /  29.1 °C 55.1 °F /  12.8 °C 29.97in /  1014.8hPa NE 3.4mph /  5.5km/h 13mph /  20.9km/h 36.8% 0.00in /  0mm 742 W/m2
14:14 84.1 °F /  28.9 °C 55.7 °F /  13.2 °C 29.97in /  1014.8hPa NE 2.3mph /  3.7km/h 13mph /  20.9km/h 37.9% 0.00in /  0mm 793 W/m2
14:19 84.4 °F /  29.1 °C 56.1 °F /  13.4 °C 29.97in /  1014.8hPa ENE 2.1mph /  3.4km/h 13mph /  20.9km/h 38.1% 0.00in /  0mm 870 W/m2
14:24 84.5 °F /  29.2 °C 55.5 °F /  13.1 °C 29.97in /  1014.8hPa North 1.6mph /  2.6km/h 13mph /  20.9km/h 37.1% 0.00in /  0mm 183 W/m2
14:29 84.2 °F /  29 °C 54.6 °F /  12.6 °C 29.97in /  1014.8hPa East 3.5mph /  5.6km/h 13mph /  20.9km/h 36.3% 0.00in /  0mm 717 W/m2
14:34 83.9 °F /  28.8 °C 54.9 °F /  12.7 °C 29.97in /  1014.8hPa NE 1.1mph /  1.8km/h 13mph /  20.9km/h 37% 0.00in /  0mm 724 W/m2
14:39 84.3 °F /  29.1 °C 55.1 °F /  12.8 °C 29.97in /  1014.8hPa NNE 3.1mph /  5km/h 14mph /  22.5km/h 36.9% 0.00in /  0mm 733 W/m2
14:43 84.7 °F /  29.3 °C 55 °F /  12.8 °C 29.96in /  1014.4hPa ENE 2.7mph /  4.3km/h 14mph /  22.5km/h 36.2% 0.00in /  0mm 763 W/m2
14:49 84.7 °F /  29.3 °C 55.1 °F /  12.8 °C 29.96in /  1014.4hPa ENE 1.9mph /  3.1km/h 14mph /  22.5km/h 36.4% 0.00in /  0mm 745 W/m2
14:54 84.6 °F /  29.2 °C 55.3 °F /  12.9 °C 29.96in /  1014.4hPa NE 1.3mph /  2.1km/h 14mph /  22.5km/h 36.8% 0.00in /  0mm 492 W/m2
14:59 84.5 °F /  29.2 °C 55.7 °F /  13.2 °C 29.96in /  1014.4hPa NE 2.8mph /  4.5km/h 16mph /  25.7km/h 37.5% 0.00in /  0mm 731 W/m2
15:04 84.6 °F /  29.2 °C 55.6 °F /  13.1 °C 29.96in /  1014.4hPa ENE 4mph /  6.4km/h 16mph /  25.7km/h 37.1% 0.00in /  0mm 700 W/m2
15:09 84.5 °F /  29.2 °C 55.3 °F /  12.9 °C 29.96in /  1014.4hPa ENE 4.8mph /  7.7km/h 11mph /  17.7km/h 36.9% 0.00in /  0mm 691 W/m2
15:14 84.4 °F /  29.1 °C 55.6 °F /  13.1 °C 29.95in /  1014.1hPa ENE 1.4mph /  2.3km/h 11mph /  17.7km/h 37.4% 0.00in /  0mm 691 W/m2
15:19 84.4 °F /  29.1 °C 56.1 °F /  13.4 °C 29.95in /  1014.1hPa East 2mph /  3.2km/h 11mph /  17.7km/h 38% 0.00in /  0mm 726 W/m2
15:24 84.2 °F /  29 °C 55.8 °F /  13.2 °C 29.95in /  1014.1hPa ENE 3.1mph /  5km/h 11mph /  17.7km/h 37.9% 0.00in /  0mm 726 W/m2
15:29 84 °F /  28.9 °C 55.7 °F /  13.2 °C 29.95in /  1014.1hPa ENE 3.6mph /  5.8km/h 11mph /  17.7km/h 38.1% 0.00in /  0mm 693 W/m2
15:34 84 °F /  28.9 °C 55.8 °F /  13.2 °C 29.95in /  1014.1hPa NE 2.3mph /  3.7km/h 11mph /  17.7km/h 38.2% 0.00in /  0mm 694 W/m2
15:39 84.5 °F /  29.2 °C 56.6 °F /  13.7 °C 29.95in /  1014.1hPa NE 2.3mph /  3.7km/h 11mph /  17.7km/h 38.6% 0.00in /  0mm 684 W/m2
15:44 84.9 °F /  29.4 °C 56.1 °F /  13.4 °C 29.95in /  1014.1hPa ENE 2.9mph /  4.7km/h 13mph /  20.9km/h 37.5% 0.00in /  0mm 717 W/m2
15:49 85.1 °F /  29.5 °C 56.4 °F /  13.6 °C 29.95in /  1014.1hPa ENE 2.9mph /  4.7km/h 13mph /  20.9km/h 37.7% 0.00in /  0mm 752 W/m2
15:54 85.2 °F /  29.6 °C 56.4 °F /  13.6 °C 29.95in /  1014.1hPa ENE 2.4mph /  3.9km/h 14mph /  22.5km/h 37.5% 0.00in /  0mm 200 W/m2
15:59 84.9 °F /  29.4 °C 56.3 °F /  13.5 °C 29.95in /  1014.1hPa ENE 4.4mph /  7.1km/h 15mph /  24.1km/h 37.7% 0.00in /  0mm 216 W/m2
16:04 83.8 °F /  28.8 °C 56.2 °F /  13.4 °C 29.95in /  1014.1hPa NE 5mph /  8km/h 7mph /  11.3km/h 39% 0.00in /  0mm 279 W/m2
16:09 83.7 °F /  28.7 °C 56.1 °F /  13.4 °C 29.95in /  1014.1hPa ENE 3.1mph /  5km/h 12mph /  19.3km/h 39% 0.00in /  0mm 306 W/m2
16:14 83.4 °F /  28.6 °C 55.9 °F /  13.3 °C 29.95in /  1014.1hPa ENE 2.9mph /  4.7km/h 12mph /  19.3km/h 39% 0.00in /  0mm 221 W/m2
16:19 83.2 °F /  28.4 °C 55.2 °F /  12.9 °C 29.95in /  1014.1hPa ENE 4mph /  6.4km/h 13mph /  20.9km/h 38.3% 0.00in /  0mm 202 W/m2
16:24 82.9 °F /  28.3 °C 55.2 °F /  12.9 °C 29.95in /  1014.1hPa NE 3.6mph /  5.8km/h 18mph /  29km/h 38.7% 0.00in /  0mm 171 W/m2
16:29 82.7 °F /  28.2 °C 54.4 °F /  12.4 °C 29.95in /  1014.1hPa NE 4.9mph /  7.9km/h 18mph /  29km/h 37.8% 0.00in /  0mm 146 W/m2
16:34 82.6 °F /  28.1 °C 54.3 °F /  12.4 °C 29.94in /  1013.8hPa ENE 4.1mph /  6.6km/h 18mph /  29km/h 37.8% 0.00in /  0mm 120 W/m2
16:39 82.6 °F /  28.1 °C 54.3 °F /  12.4 °C 29.94in /  1013.8hPa NE 3mph /  4.8km/h 13mph /  20.9km/h 37.8% 0.00in /  0mm 118 W/m2
16:44 82.7 °F /  28.2 °C 54.6 °F /  12.6 °C 29.94in /  1013.8hPa ENE 1.6mph /  2.6km/h 13mph /  20.9km/h 38% 0.00in /  0mm 121 W/m2
16:49 82.9 °F /  28.3 °C 54.4 °F /  12.4 °C 29.94in /  1013.8hPa ENE 4.7mph /  7.6km/h 13mph /  20.9km/h 37.5% 0.00in /  0mm 123 W/m2
16:54 83.1 °F /  28.4 °C 54.7 °F /  12.6 °C 29.94in /  1013.8hPa East 1.9mph /  3.1km/h 13mph /  20.9km/h 37.7% 0.00in /  0mm 121 W/m2
16:59 83.3 °F /  28.5 °C 54.1 °F /  12.3 °C 29.94in /  1013.8hPa ENE 2.6mph /  4.2km/h 13mph /  20.9km/h 36.7% 0.00in /  0mm 141 W/m2
17:04 83.5 °F /  28.6 °C 53.8 °F /  12.1 °C 29.94in /  1013.8hPa NE 3.7mph /  6km/h 13mph /  20.9km/h 36.1% 0.00in /  0mm 171 W/m2
17:09 83.6 °F /  28.7 °C 53.7 °F /  12.1 °C 29.94in /  1013.8hPa ENE 2.3mph /  3.7km/h 13mph /  20.9km/h 35.8% 0.00in /  0mm 193 W/m2
17:14 83.8 °F /  28.8 °C 53.8 °F /  12.1 °C 29.94in /  1013.8hPa ENE 4.1mph /  6.6km/h 13mph /  20.9km/h 35.7% 0.00in /  0mm 195 W/m2
17:19 84 °F /  28.9 °C 54.3 °F /  12.4 °C 29.94in /  1013.8hPa NE 3.2mph /  5.1km/h 13mph /  20.9km/h 36.2% 0.00in /  0mm 179 W/m2
17:24 83.9 °F /  28.8 °C 54.2 °F /  12.3 °C 29.94in /  1013.8hPa ENE 3.5mph /  5.6km/h 16mph /  25.7km/h 36% 0.00in /  0mm 167 W/m2
17:29 83.7 °F /  28.7 °C 55.2 °F /  12.9 °C 29.94in /  1013.8hPa ENE 4.2mph /  6.8km/h 16mph /  25.7km/h 37.8% 0.00in /  0mm 167 W/m2
17:34 83.2 °F /  28.4 °C 57.3 °F /  14.1 °C 29.94in /  1013.8hPa NE 4.9mph /  7.9km/h 16mph /  25.7km/h 41.3% 0.00in /  0mm 174 W/m2
17:39 82.7 °F /  28.2 °C 57.7 °F /  14.3 °C 29.94in /  1013.8hPa ENE 4.3mph /  6.9km/h 15mph /  24.1km/h 42.6% 0.00in /  0mm 174 W/m2
17:44 82.2 °F /  27.9 °C 57.7 °F /  14.3 °C 29.95in /  1014.1hPa ENE 5.2mph /  8.4km/h 15mph /  24.1km/h 43.4% 0.00in /  0mm 146 W/m2
17:49 81.7 °F /  27.6 °C 57.8 °F /  14.3 °C 29.95in /  1014.1hPa ENE 4.8mph /  7.7km/h 15mph /  24.1km/h 44.2% 0.00in /  0mm 141 W/m2
17:54 81.4 °F /  27.4 °C 58.3 °F /  14.6 °C 29.95in /  1014.1hPa ENE 4.7mph /  7.6km/h 15mph /  24.1km/h 45.4% 0.00in /  0mm 109 W/m2
17:59 81.1 °F /  27.3 °C 58.5 °F /  14.7 °C 29.95in /  1014.1hPa NE 3.2mph /  5.1km/h 15mph /  24.1km/h 46.2% 0.00in /  0mm 72 W/m2
18:04 80.9 °F /  27.2 °C 58.8 °F /  14.9 °C 29.95in /  1014.1hPa East 3.7mph /  6km/h 15mph /  24.1km/h 47% 0.00in /  0mm 53 W/m2
18:09 80.5 °F /  26.9 °C 58.7 °F /  14.8 °C 29.95in /  1014.1hPa ENE 3.6mph /  5.8km/h 13mph /  20.9km/h 47.4% 0.00in /  0mm 44 W/m2
18:14 80.3 °F /  26.8 °C 58.8 °F /  14.9 °C 29.95in /  1014.1hPa ENE 4.6mph /  7.4km/h 15mph /  24.1km/h 48% 0.00in /  0mm 44 W/m2
18:19 80.1 °F /  26.7 °C 58.9 °F /  14.9 °C 29.95in /  1014.1hPa ENE 4.3mph /  6.9km/h 15mph /  24.1km/h 48.4% 0.00in /  0mm 42 W/m2
18:24 79.9 °F /  26.6 °C 58.8 °F /  14.9 °C 29.96in /  1014.4hPa ENE 3.1mph /  5km/h 15mph /  24.1km/h 48.6% 0.00in /  0mm 42 W/m2
18:29 79.8 °F /  26.6 °C 58.6 °F /  14.8 °C 29.95in /  1014.1hPa NE 3.5mph /  5.6km/h 15mph /  24.1km/h 48.5% 0.00in /  0mm 39 W/m2
18:34 79.6 °F /  26.4 °C 58.4 °F /  14.7 °C 29.95in /  1014.1hPa East 2.7mph /  4.3km/h 15mph /  24.1km/h 48.3% 0.00in /  0mm 33 W/m2
18:39 79.4 °F /  26.3 °C 58 °F /  14.4 °C 29.96in /  1014.4hPa ENE 2mph /  3.2km/h 9mph /  14.5km/h 48% 0.00in /  0mm 28 W/m2
18:44 79.3 °F /  26.3 °C 58.4 °F /  14.7 °C 29.96in /  1014.4hPa ENE 2.7mph /  4.3km/h 9mph /  14.5km/h 48.8% 0.00in /  0mm 25 W/m2
18:49 79.1 °F /  26.2 °C 58.3 °F /  14.6 °C 29.96in /  1014.4hPa ENE 2mph /  3.2km/h 9mph /  14.5km/h 49% 0.00in /  0mm 25 W/m2
18:54 78.9 °F /  26.1 °C 58.2 °F /  14.6 °C 29.96in /  1014.4hPa ENE 2.8mph /  4.5km/h 12mph /  19.3km/h 49% 0.00in /  0mm 25 W/m2
18:59 78.7 °F /  25.9 °C 58 °F /  14.4 °C 29.96in /  1014.4hPa ENE 3.3mph /  5.3km/h 12mph /  19.3km/h 49% 0.00in /  0mm 23 W/m2
19:04 78.6 °F /  25.9 °C 57.8 °F /  14.3 °C 29.96in /  1014.4hPa NE 3.1mph /  5km/h 12mph /  19.3km/h 49% 0.00in /  0mm 21 W/m2
19:09 78.5 °F /  25.8 °C 57.8 °F /  14.3 °C 29.96in /  1014.4hPa NE 1.8mph /  2.9km/h 12mph /  19.3km/h 49.2% 0.00in /  0mm 18 W/m2
19:14 78.3 °F /  25.7 °C 58.2 °F /  14.6 °C 29.96in /  1014.4hPa NE 2.7mph /  4.3km/h 12mph /  19.3km/h 50% 0.00in /  0mm 18 W/m2
19:19 78.2 °F /  25.7 °C 58.1 °F /  14.5 °C 29.96in /  1014.4hPa ENE 2.2mph /  3.5km/h 12mph /  19.3km/h 50% 0.00in /  0mm 16 W/m2
19:24 78.1 °F /  25.6 °C 58 °F /  14.4 °C 29.96in /  1014.4hPa NE 2mph /  3.2km/h 12mph /  19.3km/h 50.1% 0.00in /  0mm 12 W/m2
19:29 78 °F /  25.6 °C 58.2 °F /  14.6 °C 29.96in /  1014.4hPa ENE 1.2mph /  1.9km/h 12mph /  19.3km/h 50.7% 0.00in /  0mm 11 W/m2
19:34 77.8 °F /  25.4 °C 58.3 °F /  14.6 °C 29.96in /  1014.4hPa NE 1.6mph /  2.6km/h 12mph /  19.3km/h 51% 0.00in /  0mm 7 W/m2
19:39 77.7 °F /  25.4 °C 58.1 °F /  14.5 °C 29.96in /  1014.4hPa NE 1.5mph /  2.4km/h 10mph /  16.1km/h 51% 0.00in /  0mm 5 W/m2
19:44 77.5 °F /  25.3 °C 58.1 °F /  14.5 °C 29.96in /  1014.4hPa ENE 1.3mph /  2.1km/h 10mph /  16.1km/h 51.2% 0.00in /  0mm 0 W/m2
19:49 77.3 °F /  25.2 °C 58.3 °F /  14.6 °C 29.96in /  1014.4hPa NE 1.2mph /  1.9km/h 10mph /  16.1km/h 51.8% 0.00in /  0mm 0 W/m2
19:54 77.2 °F /  25.1 °C 58.2 °F /  14.6 °C 29.96in /  1014.4hPa ENE 0.7mph /  1.1km/h 10mph /  16.1km/h 52% 0.00in /  0mm 0 W/m2
19:59 77 °F /  25 °C 58.1 °F /  14.5 °C 29.96in /  1014.4hPa ENE 0.8mph /  1.3km/h 10mph /  16.1km/h 52.1% 0.00in /  0mm 0 W/m2
20:00 76.9 °F /  24.9 °C 58.5 °F /  14.7 °C 29.96in /  1014.4hPa East 2mph /  3.2km/h 10mph /  16.1km/h 53% 0.00in /  0mm 0 W/m2
20:09 76.7 °F /  24.8 °C 58.3 °F /  14.6 °C 29.96in /  1014.4hPa ENE 1.4mph /  2.3km/h 6mph /  9.7km/h 53% 0.00in /  0mm 0 W/m2
20:14 76.5 °F /  24.7 °C 58.3 °F /  14.6 °C 29.96in /  1014.4hPa NE 1.1mph /  1.8km/h 10mph /  16.1km/h 53.2% 0.00in /  0mm 0 W/m2
20:19 76.4 °F /  24.7 °C 58.2 °F /  14.6 °C 29.96in /  1014.4hPa ENE 1.1mph /  1.8km/h 10mph /  16.1km/h 53.5% 0.00in /  0mm 0 W/m2
20:24 76.2 °F /  24.6 °C 58.5 °F /  14.7 °C 29.96in /  1014.4hPa ENE 0.8mph /  1.3km/h 10mph /  16.1km/h 54.1% 0.00in /  0mm 0 W/m2
20:29 76.1 °F /  24.5 °C 58.5 °F /  14.7 °C 29.96in /  1014.4hPa NE 1.2mph /  1.9km/h 10mph /  16.1km/h 54.5% 0.00in /  0mm 0 W/m2
20:34 76 °F /  24.4 °C 58.8 °F /  14.9 °C 29.97in /  1014.8hPa NE 1.3mph /  2.1km/h 10mph /  16.1km/h 55.2% 0.00in /  0mm 0 W/m2
20:39 75.8 °F /  24.3 °C 58.5 °F /  14.7 °C 29.97in /  1014.8hPa ENE 1.7mph /  2.7km/h 7mph /  11.3km/h 55.1% 0.00in /  0mm 0 W/m2
20:44 75.6 °F /  24.2 °C 58.4 °F /  14.7 °C 29.97in /  1014.8hPa NE 1.1mph /  1.8km/h 7mph /  11.3km/h 55% 0.00in /  0mm 0 W/m2
20:49 75.5 °F /  24.2 °C 58.6 °F /  14.8 °C 29.97in /  1014.8hPa NE 0.6mph /  1km/h 7mph /  11.3km/h 55.7% 0.00in /  0mm 0 W/m2
20:54 75.4 °F /  24.1 °C 58.6 °F /  14.8 °C 29.97in /  1014.8hPa NE 1.3mph /  2.1km/h 7mph /  11.3km/h 56% 0.00in /  0mm 0 W/m2
20:59 75.2 °F /  24 °C 58.5 °F /  14.7 °C 29.97in /  1014.8hPa ENE 0.6mph /  1km/h 7mph /  11.3km/h 56% 0.00in /  0mm 0 W/m2
21:04 75.1 °F /  23.9 °C 58.3 °F /  14.6 °C 29.98in /  1015.1hPa ENE 1.2mph /  1.9km/h 7mph /  11.3km/h 56% 0.00in /  0mm 0 W/m2
21:09 74.9 °F /  23.8 °C 58.2 °F /  14.6 °C 29.98in /  1015.1hPa ENE 1.7mph /  2.7km/h 6mph /  9.7km/h 56% 0.00in /  0mm 0 W/m2
21:14 74.8 °F /  23.8 °C 58.1 °F /  14.5 °C 29.98in /  1015.1hPa ENE 0.7mph /  1.1km/h 6mph /  9.7km/h 56% 0.00in /  0mm 0 W/m2
21:19 74.7 °F /  23.7 °C 58 °F /  14.4 °C 29.98in /  1015.1hPa ENE 0.8mph /  1.3km/h 6mph /  9.7km/h 56% 0.00in /  0mm 0 W/m2
21:24 74.6 °F /  23.7 °C 58 °F /  14.4 °C 29.99in /  1015.5hPa ENE 1mph /  1.6km/h 6mph /  9.7km/h 56.2% 0.00in /  0mm 0 W/m2
21:29 74.5 °F /  23.6 °C 58 °F /  14.4 °C 29.99in /  1015.5hPa ENE 1.1mph /  1.8km/h 6mph /  9.7km/h 56.3% 0.00in /  0mm 0 W/m2
21:34 74.4 °F /  23.6 °C 58.1 °F /  14.5 °C 29.99in /  1015.5hPa NE 0.8mph /  1.3km/h 6mph /  9.7km/h 56.8% 0.00in /  0mm 0 W/m2
21:39 74.3 °F /  23.5 °C 58.1 °F /  14.5 °C 29.99in /  1015.5hPa NE 1.4mph /  2.3km/h 7mph /  11.3km/h 57% 0.00in /  0mm 0 W/m2
21:44 74.2 °F /  23.4 °C 58 °F /  14.4 °C 29.99in /  1015.5hPa NE 2mph /  3.2km/h 9mph /  14.5km/h 57% 0.00in /  0mm 0 W/m2
21:49 74.1 °F /  23.4 °C 57.9 °F /  14.4 °C 29.99in /  1015.5hPa ENE 0.8mph /  1.3km/h 9mph /  14.5km/h 57% 0.00in /  0mm 0 W/m2
21:54 74 °F /  23.3 °C 57.8 °F /  14.3 °C 29.99in /  1015.5hPa NE 1.6mph /  2.6km/h 9mph /  14.5km/h 57% 0.00in /  0mm 0 W/m2
21:59 73.9 °F /  23.3 °C 57.7 °F /  14.3 °C 29.99in /  1015.5hPa NE 1.3mph /  2.1km/h 9mph /  14.5km/h 57% 0.00in /  0mm 0 W/m2
22:04 73.9 °F /  23.3 °C 57.7 °F /  14.3 °C 29.99in /  1015.5hPa NE 0.6mph /  1km/h 9mph /  14.5km/h 57% 0.00in /  0mm 0 W/m2
22:09 73.8 °F /  23.2 °C 57.6 °F /  14.2 °C 29.99in /  1015.5hPa NE 0.7mph /  1.1km/h 5mph /  8km/h 57% 0.00in /  0mm 0 W/m2
22:14 73.7 °F /  23.2 °C 57.5 °F /  14.2 °C 30.00in /  1015.8hPa ENE 0.6mph /  1km/h 5mph /  8km/h 57% 0.00in /  0mm 0 W/m2
22:19 73.6 °F /  23.1 °C 57.4 °F /  14.1 °C 30.00in /  1015.8hPa ENE 2mph /  3.2km/h 10mph /  16.1km/h 57% 0.00in /  0mm 0 W/m2
22:24 73.5 °F /  23.1 °C 57.3 °F /  14.1 °C 30.00in /  1015.8hPa ENE 2.2mph /  3.5km/h 10mph /  16.1km/h 57% 0.00in /  0mm 0 W/m2
22:29 73.5 °F /  23.1 °C 57.4 °F /  14.1 °C 29.99in /  1015.5hPa NE 0.1mph /  0.2km/h 10mph /  16.1km/h 57% 0.00in /  0mm 0 W/m2
22:34 73.5 °F /  23.1 °C 57.3 °F /  14.1 °C 29.99in /  1015.5hPa NE 0.1mph /  0.2km/h 10mph /  16.1km/h 57% 0.00in /  0mm 0 W/m2
22:39 73.4 °F /  23 °C 57.6 °F /  14.2 °C 29.99in /  1015.5hPa NE 0.3mph /  0.5km/h 4mph /  6.4km/h 57.6% 0.00in /  0mm 0 W/m2
22:44 73.3 °F /  22.9 °C 57.7 °F /  14.3 °C 29.99in /  1015.5hPa NE 1.5mph /  2.4km/h 10mph /  16.1km/h 58% 0.00in /  0mm 0 W/m2
22:49 73.2 °F /  22.9 °C 57.6 °F /  14.2 °C 29.99in /  1015.5hPa NNE 1.2mph /  1.9km/h 10mph /  16.1km/h 58% 0.00in /  0mm 0 W/m2
22:54 73.2 °F /  22.9 °C 57.5 °F /  14.2 °C 29.99in /  1015.5hPa East 0.5mph /  0.8km/h 10mph /  16.1km/h 58% 0.00in /  0mm 0 W/m2
22:59 73.1 °F /  22.8 °C 57.5 °F /  14.2 °C 30.00in /  1015.8hPa ENE 1.1mph /  1.8km/h 10mph /  16.1km/h 58% 0.00in /  0mm 0 W/m2
23:04 73.1 °F /  22.8 °C 57.5 °F /  14.2 °C 30.00in /  1015.8hPa East 0.3mph /  0.5km/h 10mph /  16.1km/h 58% 0.00in /  0mm 0 W/m2
23:09 73 °F /  22.8 °C 57.4 °F /  14.1 °C 30.00in /  1015.8hPa NE 1mph /  1.6km/h 9mph /  14.5km/h 58% 0.00in /  0mm 0 W/m2
23:14 73 °F /  22.8 °C 57.2 °F /  14 °C 30.00in /  1015.8hPa East 1mph /  1.6km/h 9mph /  14.5km/h 57.8% 0.00in /  0mm 0 W/m2
23:19 72.9 °F /  22.7 °C 56.8 °F /  13.8 °C 30.00in /  1015.8hPa East 0.8mph /  1.3km/h 9mph /  14.5km/h 57% 0.00in /  0mm 0 W/m2
23:24 72.9 °F /  22.7 °C 56.8 °F /  13.8 °C 30.00in /  1015.8hPa ENE 2.2mph /  3.5km/h 9mph /  14.5km/h 57% 0.00in /  0mm 0 W/m2
23:29 72.8 °F /  22.7 °C 56.8 °F /  13.8 °C 30.00in /  1015.8hPa ENE 1.1mph /  1.8km/h 9mph /  14.5km/h 57.2% 0.00in /  0mm 0 W/m2
23:34 72.8 °F /  22.7 °C 57.1 °F /  13.9 °C 30.00in /  1015.8hPa East 1.1mph /  1.8km/h 9mph /  14.5km/h 57.8% 0.00in /  0mm 0 W/m2
23:39 72.7 °F /  22.6 °C 57.1 °F /  13.9 °C 30.00in /  1015.8hPa East 1.5mph /  2.4km/h 9mph /  14.5km/h 58% 0.00in /  0mm 0 W/m2
23:44 72.7 °F /  22.6 °C 57.1 °F /  13.9 °C 30.01in /  1016.1hPa ENE 1mph /  1.6km/h 9mph /  14.5km/h 58% 0.00in /  0mm 0 W/m2
23:49 72.6 °F /  22.6 °C 57 °F /  13.9 °C 30.00in /  1015.8hPa East 0.6mph /  1km/h 9mph /  14.5km/h 58% 0.00in /  0mm 0 W/m2
23:54 72.5 °F /  22.5 °C 56.9 °F /  13.8 °C 30.00in /  1015.8hPa East 0.2mph /  0.3km/h 9mph /  14.5km/h 58% 0.00in /  0mm 0 W/m2
23:59 72.4 °F /  22.4 °C 56.8 °F /  13.8 °C 30.00in /  1015.8hPa East 0.4mph /  0.6km/h 9mph /  14.5km/h 58% 0.00in /  0mm 0 W/m2
Hartford County Weather
Compliments of Weather Underground - 2 mb